Terminal Aerodrome Forecast
Issued by NWS

Home | Current Version | Previous Version | Text Only | Print | Product List | Glossary On
Versions: 1 2 3 4 5 6 7 8 9 10 11 12 13 14 15 16 17 18 19 20 21 22 23 24 25 26 27 28
000
FTAK31 PAFA 301720
TAFAFA
TAF
PAFA 301720Z 3018/0124 VRB03KT P6SM BKN100 BKN250
     FM302200 26008KT 6SM FU VCSH SCT050 BKN100 OVC200
     FM010600 26008KT 6SM -SHRA FU SCT035 BKN050 OVC100=

USA.gov is the U.S. government's official web portal to all federal, state and local government web resources and services.